createdAt,value
2019-02-12T00:00:28.050Z,2.30
2019-02-12T00:02:55.200Z,2.30
2019-02-12T00:05:22.362Z,2.20
2019-02-12T00:07:49.194Z,2.30
2019-02-12T00:10:16.347Z,2.30
2019-02-12T00:12:43.199Z,2.40
2019-02-12T00:15:10.338Z,2.40
2019-02-12T00:17:37.490Z,2.30
2019-02-12T00:20:06.067Z,2.10
2019-02-12T00:22:33.019Z,2.00
2019-02-12T00:24:59.865Z,2.00
2019-02-12T00:27:26.707Z,2.00
2019-02-12T00:29:53.863Z,2.00
2019-02-12T00:32:20.702Z,2.10
2019-02-12T00:34:48.076Z,2.10
2019-02-12T00:37:15.018Z,2.10
2019-02-12T00:39:42.151Z,2.10
2019-02-12T00:42:08.995Z,2.00
2019-02-12T00:44:35.884Z,2.00
2019-02-12T00:47:02.684Z,1.90
2019-02-12T00:49:29.524Z,2.00
2019-02-12T00:51:56.674Z,2.10
2019-02-12T00:54:24.173Z,2.20
2019-02-12T00:56:51.286Z,2.30
2019-02-12T00:59:18.434Z,2.30
2019-02-12T01:01:45.277Z,2.20
2019-02-12T01:04:12.427Z,2.10
2019-02-12T01:06:39.578Z,2.00
2019-02-12T01:09:06.729Z,1.70
2019-02-12T01:11:33.879Z,1.70
2019-02-12T01:14:00.722Z,1.80
2019-02-12T01:16:27.570Z,1.80
2019-02-12T01:18:54.716Z,1.70
2019-02-12T01:21:26.178Z,1.70
2019-02-12T01:23:50.246Z,1.60
2019-02-12T01:26:17.403Z,1.50
2019-02-12T01:28:44.303Z,1.60
2019-02-12T01:31:11.132Z,1.80
2019-02-12T01:33:37.972Z,1.60
2019-02-12T01:36:04.770Z,1.60
2019-02-12T01:38:31.614Z,1.80
2019-02-12T01:40:58.771Z,1.70
2019-02-12T01:43:25.915Z,1.70
2019-02-12T01:45:52.759Z,1.80
2019-02-12T01:48:19.604Z,1.70
2019-02-12T01:50:46.447Z,1.70
2019-02-12T01:53:13.290Z,1.70
2019-02-12T01:55:40.176Z,1.70
2019-02-12T01:58:06.976Z,1.70
2019-02-12T02:00:33.964Z,1.70
2019-02-12T02:03:00.968Z,1.70
2019-02-12T02:05:27.812Z,1.70
2019-02-12T02:07:55.271Z,1.80
2019-02-12T02:10:22.113Z,1.70
2019-02-12T02:12:48.955Z,1.90
2019-02-12T02:15:16.364Z,1.90
2019-02-12T02:17:43.257Z,1.90
2019-02-12T02:20:12.865Z,1.80
2019-02-12T02:22:40.018Z,1.90
2019-02-12T02:25:09.318Z,1.90
2019-02-12T02:27:36.204Z,1.90
2019-02-12T02:30:04.541Z,2.00
2019-02-12T02:32:31.383Z,2.00
2019-02-12T02:34:58.533Z,2.20
2019-02-12T02:37:25.376Z,2.20
2019-02-12T02:39:52.231Z,2.20
2019-02-12T02:42:19.168Z,2.20
2019-02-12T02:44:46.213Z,2.20
2019-02-12T02:47:13.058Z,2.30
2019-02-12T02:49:39.900Z,2.30
2019-02-12T02:52:07.094Z,2.30
2019-02-12T02:54:34.201Z,2.30
2019-02-12T02:57:01.046Z,2.20
2019-02-12T02:59:27.890Z,2.20
2019-02-12T03:01:55.038Z,2.20
2019-02-12T03:04:21.885Z,2.20
2019-02-12T03:06:48.725Z,2.20
2019-02-12T03:09:16.797Z,2.20
2019-02-12T03:11:43.644Z,2.10
2019-02-12T03:14:10.485Z,2.10
2019-02-12T03:16:37.652Z,2.20
2019-02-12T03:19:04.480Z,2.20
2019-02-12T03:21:31.328Z,2.20
2019-02-12T03:23:58.471Z,2.10
2019-02-12T03:26:25.281Z,2.00
2019-02-12T03:28:52.173Z,2.00
2019-02-12T03:31:19.315Z,2.10
2019-02-12T03:33:46.154Z,2.00
2019-02-12T03:36:12.995Z,1.90
2019-02-12T03:38:40.148Z,2.00
2019-02-12T03:41:06.989Z,2.00
2019-02-12T03:43:34.139Z,2.10
2019-02-12T03:46:00.985Z,2.10
2019-02-12T03:48:27.831Z,2.10
2019-02-12T03:50:54.978Z,2.00
2019-02-12T03:53:21.819Z,2.10
2019-02-12T03:55:48.670Z,2.10
2019-02-12T03:58:16.121Z,2.00
2019-02-12T04:00:42.992Z,1.90
2019-02-12T04:03:09.814Z,2.00
2019-02-12T04:05:37.907Z,1.90
2019-02-12T04:08:05.031Z,1.90
2019-02-12T04:10:32.181Z,1.90
2019-02-12T04:12:59.245Z,1.80
2019-02-12T04:15:26.174Z,1.80
2019-02-12T04:17:53.017Z,1.80
2019-02-12T04:20:20.167Z,1.80
2019-02-12T04:22:47.319Z,2.00
2019-02-12T04:25:14.169Z,2.10
2019-02-12T04:27:41.313Z,2.20
2019-02-12T04:30:08.465Z,2.40
2019-02-12T04:32:35.614Z,2.50
2019-02-12T04:35:02.459Z,2.60
2019-02-12T04:37:29.349Z,2.30
2019-02-12T04:39:56.143Z,2.20
2019-02-12T04:42:23.009Z,2.20
2019-02-12T04:44:50.138Z,2.30
2019-02-12T04:47:16.981Z,2.50
2019-02-12T04:49:44.142Z,2.50
2019-02-12T05:33:54.070Z,2.70
2019-02-12T05:36:20.913Z,2.60
2019-02-12T05:38:48.063Z,2.60
2019-02-12T05:41:14.907Z,2.50
2019-02-12T05:43:41.750Z,2.40
2019-02-12T05:46:08.900Z,2.20
2019-02-12T05:48:35.744Z,2.30
2019-02-12T05:51:02.604Z,2.10
2019-02-12T05:53:29.737Z,2.00
2019-02-12T05:55:56.586Z,1.90
2019-02-12T05:58:23.424Z,2.00
2019-02-12T06:00:50.574Z,2.00
2019-02-12T06:03:17.417Z,1.90
2019-02-12T06:05:44.306Z,1.90
2019-02-12T06:08:11.411Z,2.10
2019-02-12T06:10:38.307Z,2.00
2019-02-12T06:13:05.100Z,2.00
2019-02-12T06:15:32.250Z,2.00
2019-02-12T06:17:59.031Z,2.00
2019-02-12T06:20:25.948Z,2.00
2019-02-12T06:22:53.089Z,2.10
2019-02-12T06:25:19.930Z,2.10
2019-02-12T06:27:47.082Z,2.00
2019-02-12T06:30:14.237Z,2.00
2019-02-12T06:32:41.383Z,1.90
2019-02-12T06:35:09.146Z,2.00
2019-02-12T06:37:35.989Z,2.10
2019-02-12T06:40:05.293Z,2.00
2019-02-12T06:42:32.133Z,2.00
2019-02-12T06:44:58.977Z,2.00
2019-02-12T06:47:25.952Z,1.90
2019-02-12T06:49:52.970Z,2.00
2019-02-12T06:52:19.814Z,2.00
2019-02-12T06:54:46.701Z,2.00
2019-02-12T06:57:13.502Z,2.20
2019-02-12T06:59:40.388Z,2.20
2019-02-12T07:02:44.409Z,2.00
2019-02-12T07:05:11.511Z,2.10
2019-02-12T07:08:15.524Z,2.10
2019-02-12T07:10:42.371Z,2.10
2019-02-12T07:13:31.329Z,2.10
2019-02-12T07:16:01.247Z,2.00
2019-02-12T07:18:34.846Z,2.00
2019-02-12T07:21:17.400Z,2.10
2019-02-12T07:23:50.651Z,2.10
2019-02-12T07:26:48.831Z,2.10
2019-02-12T07:29:36.051Z,2.10
2019-02-12T07:32:29.518Z,2.20
2019-02-12T07:35:03.085Z,2.20
2019-02-12T07:37:42.567Z,2.20
2019-02-12T07:40:25.088Z,2.30
2019-02-12T07:43:01.450Z,2.30
2019-02-12T07:45:34.544Z,2.40
2019-02-12T07:48:10.817Z,2.40
2019-02-12T07:50:57.498Z,2.40
2019-02-12T07:53:39.848Z,2.40
2019-02-12T07:56:44.127Z,2.50
2019-02-12T07:59:17.422Z,2.50
2019-02-12T08:01:59.932Z,2.60
2019-02-12T08:04:42.445Z,2.60
2019-02-12T08:07:22.201Z,2.60
2019-02-12T08:10:07.465Z,2.70
2019-02-12T08:12:58.887Z,2.80
2019-02-12T08:16:02.904Z,2.80
2019-02-12T08:18:42.385Z,2.80
2019-02-12T08:21:18.748Z,2.80
2019-02-12T08:24:15.084Z,2.80
2019-02-12T08:27:00.806Z,2.90
2019-02-12T08:29:42.824Z,2.90
2019-02-12T08:32:29.667Z,2.90
2019-02-12T08:35:21.671Z,3.00
2019-02-12T08:38:24.458Z,3.00
2019-02-12T08:41:06.665Z,3.00
2019-02-12T08:49:00.983Z,3.20
2019-02-12T08:51:34.591Z,3.00
2019-02-12T08:54:14.068Z,3.10
2019-02-12T08:56:50.699Z,3.20
2019-02-12T08:59:32.948Z,3.20
2019-02-12T09:02:06.195Z,3.20
2019-02-12T09:04:36.729Z,3.30
2019-02-12T09:07:07.254Z,3.40
2019-02-12T09:51:33.167Z,3.50
2019-02-12T09:54:08.767Z,4.30
2019-02-12T09:56:47.748Z,4.30
2019-02-12T09:59:24.110Z,4.50
2019-02-12T10:02:03.326Z,4.70
2019-02-12T10:04:48.365Z,4.70
2019-02-12T10:07:18.784Z,4.70
2019-02-12T10:10:00.943Z,4.80
2019-02-12T10:12:52.383Z,4.90
2019-02-12T10:15:34.874Z,4.90
2019-02-12T10:18:23.528Z,4.90
2019-02-12T10:21:01.752Z,4.90
2019-02-12T10:23:57.766Z,5.00
2019-02-12T10:26:31.368Z,5.00
2019-02-12T10:29:04.882Z,4.90
2019-02-12T10:31:42.566Z,4.60
2019-02-12T10:34:09.984Z,4.50
2019-02-12T10:36:36.867Z,4.70
2019-02-12T10:39:07.088Z,4.70
2019-02-12T10:41:34.038Z,4.80
2019-02-12T10:44:04.751Z,5.00
2019-02-12T10:46:31.616Z,5.00
2019-02-12T10:48:58.455Z,5.10
2019-02-12T10:51:25.298Z,4.70
2019-02-12T10:53:52.184Z,4.60
2019-02-12T10:56:18.985Z,4.70
2019-02-12T10:58:45.828Z,4.70
2019-02-12T11:01:12.978Z,4.80
2019-02-12T11:03:39.822Z,5.00
2019-02-12T11:06:06.973Z,5.10
2019-02-12T11:08:33.818Z,4.90
2019-02-12T11:11:00.969Z,4.60
2019-02-12T11:13:28.117Z,4.70
2019-02-12T11:15:54.961Z,4.90
2019-02-12T11:18:21.808Z,5.00
2019-02-12T11:20:48.955Z,5.00
2019-02-12T11:23:15.843Z,5.00
2019-02-12T11:25:42.645Z,5.20
2019-02-12T11:28:09.791Z,5.20
2019-02-12T11:30:36.634Z,5.40
2019-02-12T11:33:03.785Z,5.50
2019-02-12T11:35:30.936Z,5.60
2019-02-12T11:37:57.780Z,5.60
2019-02-12T11:40:24.938Z,5.70
2019-02-12T11:42:51.816Z,5.90
2019-02-12T11:45:18.616Z,5.80
2019-02-12T11:47:45.767Z,6.00
2019-02-12T11:50:12.611Z,6.10
2019-02-12T11:52:39.453Z,6.10
2019-02-12T11:55:11.829Z,6.30
2019-02-12T11:57:40.517Z,6.00
2019-02-12T12:00:16.880Z,5.90
2019-02-12T12:02:43.726Z,5.90
2019-02-12T12:05:10.566Z,6.20
2019-02-12T12:07:37.716Z,6.30
2019-02-12T12:10:07.676Z,6.60
2019-02-12T12:12:34.782Z,6.30
2019-02-12T12:15:01.634Z,6.40
2019-02-12T12:17:28.469Z,6.50
2019-02-12T12:19:55.620Z,6.60
2019-02-12T12:22:22.475Z,6.70
2019-02-12T12:24:51.509Z,6.80
2019-02-12T12:27:17.993Z,6.40
2019-02-12T12:29:44.837Z,6.00
2019-02-12T12:32:11.987Z,6.00
2019-02-12T12:34:38.885Z,6.20
2019-02-12T12:37:05.674Z,6.40
2019-02-12T12:39:32.823Z,6.30
2019-02-12T12:41:59.667Z,6.10
2019-02-12T12:44:26.818Z,6.10
2019-02-12T12:46:53.661Z,6.10
2019-02-12T12:49:20.504Z,6.10
2019-02-12T12:51:47.678Z,5.90
2019-02-12T12:54:14.498Z,5.90
2019-02-12T12:56:41.389Z,6.00
2019-02-12T12:59:08.497Z,6.10
2019-02-12T13:01:35.343Z,5.90
2019-02-12T13:04:02.485Z,6.00
2019-02-12T13:06:29.330Z,5.80
2019-02-12T13:08:56.173Z,5.90
2019-02-12T13:11:23.324Z,6.00
2019-02-12T13:13:50.166Z,5.80
2019-02-12T13:16:16.986Z,5.90
2019-02-12T13:18:43.852Z,6.00
2019-02-12T13:21:10.696Z,5.80
2019-02-12T13:23:37.634Z,5.80
2019-02-12T13:26:04.692Z,5.70
2019-02-12T13:28:31.533Z,5.70
2019-02-12T13:30:58.684Z,5.60
2019-02-12T13:33:26.600Z,5.80
2019-02-12T13:35:53.907Z,5.60
2019-02-12T13:38:21.059Z,5.50
2019-02-12T13:40:47.900Z,5.60
2019-02-12T13:43:14.791Z,5.50
2019-02-12T13:45:41.586Z,5.50
2019-02-12T13:48:08.430Z,5.40
2019-02-12T13:50:35.580Z,5.40
2019-02-12T13:53:02.424Z,5.40
2019-02-12T13:55:29.269Z,5.30
2019-02-12T13:57:56.417Z,5.50
2019-02-12T14:00:23.261Z,5.50
2019-02-12T14:02:50.106Z,5.60
2019-02-12T14:05:23.176Z,5.70
2019-02-12T14:07:50.241Z,5.70
2019-02-12T14:10:17.399Z,5.60
2019-02-12T14:12:44.239Z,5.40
2019-02-12T14:15:12.504Z,5.50
2019-02-12T14:17:39.458Z,5.70
2019-02-12T14:20:09.327Z,5.70
2019-02-12T14:22:36.218Z,5.70
2019-02-12T14:25:05.724Z,5.80
2019-02-12T14:27:32.672Z,5.70
2019-02-12T14:29:59.516Z,5.70
2019-02-12T14:32:26.423Z,5.50
2019-02-12T14:34:53.244Z,5.60
2019-02-12T14:37:20.047Z,5.30
2019-02-12T14:39:47.023Z,5.50
2019-02-12T14:42:14.037Z,5.30
2019-02-12T14:44:40.879Z,5.30
2019-02-12T14:47:08.029Z,5.50
2019-02-12T14:49:34.872Z,5.60
2019-02-12T14:52:01.715Z,5.60
2019-02-12T14:54:28.866Z,5.60
2019-02-12T14:56:55.709Z,5.70
2019-02-12T14:59:22.859Z,5.70
2019-02-12T15:01:49.703Z,5.50
2019-02-12T15:04:16.545Z,5.60
2019-02-12T15:06:43.697Z,5.70
2019-02-12T15:09:10.540Z,5.80
2019-02-12T15:11:37.383Z,5.90
2019-02-12T15:14:04.536Z,6.00
2019-02-12T15:16:31.377Z,6.00
2019-02-12T15:18:58.231Z,6.00
2019-02-12T15:21:25.374Z,5.80
2019-02-12T15:23:52.225Z,5.80
2019-02-12T15:26:19.058Z,5.80
2019-02-12T15:28:46.207Z,5.70
2019-02-12T15:31:13.359Z,5.60
2019-02-12T15:33:40.510Z,5.90
2019-02-12T15:36:07.659Z,6.40
2019-02-12T15:38:34.503Z,6.70
2019-02-12T15:41:01.347Z,7.50
2019-02-12T16:12:59.833Z,7.70
2019-02-12T16:15:26.678Z,7.00
2019-02-12T16:17:53.519Z,6.80
2019-02-12T16:20:20.362Z,6.50
2019-02-12T16:22:47.127Z,6.40
2019-02-12T16:25:15.337Z,6.10
2019-02-12T16:27:42.429Z,6.10
2019-02-12T16:30:19.106Z,6.00
2019-02-12T16:32:46.252Z,6.10
2019-02-12T16:35:14.949Z,6.00
2019-02-12T16:37:41.792Z,5.70
2019-02-12T16:40:10.413Z,5.60
2019-02-12T16:42:37.312Z,5.40
2019-02-12T16:45:07.843Z,5.40
2019-02-12T16:47:34.735Z,5.40
2019-02-12T16:50:01.529Z,5.20
2019-02-12T16:52:28.374Z,5.10
2019-02-12T16:54:55.214Z,5.20
2019-02-12T16:57:22.058Z,5.20
2019-02-12T16:59:48.903Z,5.20
2019-02-12T17:02:16.053Z,5.20
2019-02-12T17:04:42.897Z,5.20
2019-02-12T17:07:09.738Z,4.90
2019-02-12T17:09:36.890Z,4.90
2019-02-12T17:12:03.737Z,4.70
2019-02-12T17:14:30.576Z,4.80
2019-02-12T17:16:57.727Z,4.50
2019-02-12T17:19:24.878Z,4.30
2019-02-12T17:21:51.720Z,4.10
2019-02-12T17:24:18.870Z,4.00
2019-02-12T17:26:45.633Z,3.60
2019-02-12T17:29:12.557Z,3.60
2019-02-12T17:31:39.713Z,3.50
2019-02-12T18:37:54.352Z,3.60
2019-02-12T18:40:21.149Z,3.00
2019-02-12T18:42:47.913Z,3.00
2019-02-12T18:45:19.488Z,2.90
2019-02-12T18:47:46.288Z,2.90
2019-02-12T18:50:13.140Z,2.90
2019-02-12T18:52:40.022Z,2.80
2019-02-12T18:55:12.040Z,2.80
2019-02-12T19:00:12.485Z,2.80
2019-02-12T19:02:39.328Z,2.50
2019-02-12T19:05:08.028Z,2.40
2019-02-12T19:07:35.517Z,2.50
2019-02-12T19:10:04.179Z,2.40
2019-02-12T19:12:31.002Z,2.40
2019-02-12T19:14:58.153Z,2.30
2019-02-12T19:17:25.040Z,2.20
2019-02-12T19:19:51.839Z,2.20
2019-02-12T19:22:18.683Z,2.10
2019-02-12T19:24:45.572Z,2.10
2019-02-12T19:27:12.360Z,2.10
2019-02-12T19:29:39.213Z,2.00
2019-02-12T19:32:06.363Z,2.00
2019-02-12T19:34:33.207Z,2.00
2019-02-12T19:37:00.052Z,2.00
2019-02-12T19:39:27.202Z,1.90
2019-02-12T19:41:54.044Z,1.90
2019-02-12T19:44:21.193Z,1.90
2019-02-12T19:46:48.042Z,1.80
2019-02-12T19:49:14.881Z,1.90
2019-02-12T19:51:42.073Z,1.80
2019-02-12T20:01:30.942Z,1.70
2019-02-12T20:03:57.787Z,1.40
2019-02-12T20:06:24.627Z,1.40
2019-02-12T20:08:51.784Z,1.40
2019-02-12T20:11:18.621Z,1.40
2019-02-12T20:13:45.466Z,1.30
2019-02-12T20:16:12.615Z,1.30
2019-02-12T20:18:39.767Z,1.20
2019-02-12T20:21:10.044Z,1.20
2019-02-12T20:23:37.147Z,1.20
2019-02-12T20:26:04.291Z,1.20
2019-02-12T20:28:31.133Z,1.20
2019-02-12T20:30:58.283Z,1.10
2019-02-12T20:33:25.128Z,1.10
2019-02-12T20:35:53.816Z,1.10
2019-02-12T20:38:20.709Z,1.20
2019-02-12T20:40:47.807Z,1.20
2019-02-12T20:43:14.650Z,1.10
2019-02-12T20:45:41.548Z,1.00
2019-02-12T20:48:08.386Z,1.00
2019-02-12T20:50:35.494Z,1.10
2019-02-12T20:53:02.332Z,1.00
2019-02-12T20:55:29.482Z,0.80
2019-02-12T20:57:56.632Z,0.80
2019-02-12T21:00:23.783Z,0.90
2019-02-12T21:02:50.625Z,1.10
2019-02-12T21:05:17.847Z,1.00
2019-02-12T21:07:44.928Z,0.90
2019-02-12T21:10:14.229Z,0.90
2019-02-12T21:12:42.608Z,0.80
2019-02-12T21:15:24.813Z,0.70
2019-02-12T21:17:51.962Z,0.70
2019-02-12T21:20:18.893Z,0.70
2019-02-12T21:22:45.956Z,0.70
2019-02-12T21:25:13.107Z,0.70
2019-02-12T21:27:40.265Z,0.80
2019-02-12T21:30:19.387Z,0.70
2019-02-12T21:32:48.080Z,0.60
2019-02-12T21:35:15.235Z,0.60
2019-02-12T21:37:42.376Z,0.60
2019-02-12T21:40:15.361Z,0.50
2019-02-12T21:42:42.512Z,0.50
2019-02-12T21:45:10.542Z,0.60
2019-02-12T21:47:37.427Z,0.60
2019-02-12T21:50:07.650Z,0.60
2019-02-12T21:52:34.801Z,0.50
2019-02-12T21:55:01.643Z,0.40
2019-02-12T21:57:31.918Z,0.40
2019-02-12T21:59:57.176Z,0.40
2019-02-12T22:02:24.327Z,0.20
2019-02-12T22:04:51.474Z,0.20
2019-02-12T22:07:18.317Z,0.30
2019-02-12T22:09:45.162Z,0.30
2019-02-12T22:12:12.004Z,0.30
2019-02-12T22:14:38.847Z,0.20
2019-02-12T22:17:05.690Z,0.20
2019-02-12T22:19:32.841Z,0.40
2019-02-12T22:21:59.684Z,0.30
2019-02-12T22:24:26.529Z,0.30
2019-02-12T22:26:53.683Z,0.20
2019-02-12T22:29:20.522Z,0.30
2019-02-12T22:31:47.494Z,0.30
2019-02-12T22:34:14.515Z,0.10
2019-02-12T22:36:41.666Z,0.00
2019-02-12T22:39:08.830Z,0.10
2019-02-12T22:41:36.574Z,0.10
2019-02-12T22:44:03.425Z,0.10
2019-02-12T22:46:30.575Z,0.00
2019-02-12T22:48:57.421Z,-0.10
2019-02-12T22:51:24.261Z,-0.10
2019-02-12T22:53:51.412Z,0.10
2019-02-12T22:56:18.264Z,0.10
2019-02-12T22:58:45.417Z,0.00
2019-02-12T23:01:12.556Z,0.20
2019-02-12T23:03:39.402Z,0.30
2019-02-12T23:06:06.551Z,0.20
2019-02-12T23:08:33.399Z,0.00
2019-02-12T23:11:00.243Z,0.00
2019-02-12T23:13:27.388Z,0.00
2019-02-12T23:15:54.276Z,0.00
2019-02-12T23:18:21.077Z,0.10
2019-02-12T23:20:48.233Z,0.10
2019-02-12T23:23:15.095Z,0.00
2019-02-12T23:25:42.218Z,0.00
2019-02-12T23:28:09.369Z,-0.20
2019-02-12T23:30:36.216Z,-0.20
2019-02-12T23:35:30.514Z,-0.20
2019-02-12T23:37:57.404Z,-0.40
2019-02-12T23:40:24.200Z,-0.40
2019-02-12T23:42:51.050Z,-0.50
2019-02-12T23:45:17.887Z,-0.30
2019-02-12T23:47:44.730Z,-0.20
2019-02-12T23:50:11.885Z,-0.30
2019-02-12T23:52:38.724Z,-0.40
2019-02-12T23:55:06.386Z,-0.30
2019-02-12T23:57:33.332Z,-0.20
